Time;durP1;ratioP1;P1;durP2;ratioP2;P2;SDS_P1;SDS_P2;PMS_P1;PMS_P2;Temp;Humidity;BMP_temperature;BMP_pressure;BME280_temperature;BME280_humidity;BME280_pressure;Samples;Min_cycle;Max_cycle;Signal;HPM_P1;HPM_P2
2021/01/22 00:01:00;;;;;;;1.92;0.88;;;11.40;99.90;;;;;;2070630;28;20037;-76
2021/01/22 00:02:01;;;;;;;2.22;0.80;;;11.40;99.90;;;;;;2079476;28;20045;-76
2021/01/22 00:03:02;;;;;;;3.13;0.80;;;11.30;99.90;;;;;;2070797;28;20026;-77
2021/01/22 00:04:03;;;;;;;3.42;0.70;;;11.40;99.90;;;;;;2070831;28;20440;-75
2021/01/22 00:05:04;;;;;;;1.83;0.73;;;11.40;99.90;;;;;;2079388;28;20026;-75
2021/01/22 00:06:05;;;;;;;1.23;0.70;;;11.40;99.90;;;;;;2078961;28;20032;-77
2021/01/22 00:07:05;;;;;;;1.83;1.00;;;11.40;99.90;;;;;;2078780;28;20029;-77
2021/01/22 00:08:06;;;;;;;1.25;0.77;;;11.50;99.90;;;;;;2079129;28;20037;-76
2021/01/22 00:09:07;;;;;;;2.33;0.73;;;11.40;99.90;;;;;;2079311;28;20030;-77
2021/01/22 00:10:08;;;;;;;2.97;0.98;;;11.40;99.90;;;;;;2079444;28;20087;-74
2021/01/22 00:11:10;;;;;;;2.42;0.85;;;11.40;99.90;;;;;;2079254;28;20467;-75
2021/01/22 00:12:10;;;;;;;1.55;0.65;;;11.50;99.90;;;;;;2079368;28;20034;-75
2021/01/22 00:13:11;;;;;;;3.22;0.98;;;11.50;99.90;;;;;;2079184;28;20465;-76
2021/01/22 00:14:11;;;;;;;3.35;1.08;;;11.50;99.90;;;;;;2079025;28;20096;-76
2021/01/22 00:15:12;;;;;;;2.40;0.82;;;11.50;99.90;;;;;;2070270;28;20021;-74
2021/01/22 00:16:13;;;;;;;3.58;0.95;;;11.50;99.90;;;;;;2071558;28;20018;-75
2021/01/22 00:17:14;;;;;;;2.38;0.77;;;11.50;99.90;;;;;;2069819;28;20030;-77
2021/01/22 00:18:15;;;;;;;4.00;0.85;;;11.50;99.90;;;;;;2070406;28;20457;-77
2021/01/22 00:19:15;;;;;;;1.90;0.85;;;11.50;99.90;;;;;;2079425;28;20034;-74
2021/01/22 00:20:16;;;;;;;2.30;0.68;;;11.50;99.90;;;;;;2070265;28;20106;-78
2021/01/22 00:21:17;;;;;;;2.60;0.70;;;11.50;99.90;;;;;;2070387;28;20489;-76
2021/01/22 00:22:17;;;;;;;1.30;0.68;;;11.50;99.90;;;;;;2078954;28;20044;-76
2021/01/22 00:23:18;;;;;;;1.85;0.63;;;11.50;99.90;;;;;;2079656;28;20029;-76
2021/01/22 00:24:19;;;;;;;3.08;0.70;;;11.50;99.90;;;;;;2070346;28;20037;-75
2021/01/22 00:25:19;;;;;;;3.28;0.60;;;11.50;99.90;;;;;;2070623;28;20481;-78
2021/01/22 00:26:20;;;;;;;3.90;0.95;;;11.50;99.90;;;;;;2070086;28;20124;-76
2021/01/22 00:27:20;;;;;;;2.65;0.50;;;11.50;99.90;;;;;;2070289;28;20053;-75
2021/01/22 00:28:21;;;;;;;2.45;0.70;;;11.50;99.90;;;;;;2078698;28;20038;-75
2021/01/22 00:29:22;;;;;;;1.98;0.75;;;11.50;99.90;;;;;;2079414;28;20041;-77
2021/01/22 00:30:23;;;;;;;1.83;0.63;;;11.60;99.90;;;;;;2079173;28;20392;-77
2021/01/22 00:31:23;;;;;;;1.30;0.60;;;11.50;99.90;;;;;;2079391;28;20022;-74
2021/01/22 00:32:24;;;;;;;0.90;0.50;;;11.50;99.90;;;;;;2079237;28;20151;-77
2021/01/22 00:33:25;;;;;;;2.25;0.60;;;11.50;99.90;;;;;;2079460;28;20117;-74
2021/01/22 00:34:25;;;;;;;1.50;0.47;;;11.50;99.90;;;;;;2078770;28;20083;-74
2021/01/22 00:35:26;;;;;;;2.25;0.50;;;11.50;99.90;;;;;;2079324;28;20372;-75
2021/01/22 00:36:27;;;;;;;1.38;0.50;;;11.50;99.90;;;;;;2078574;28;20017;-76
2021/01/22 00:37:27;;;;;;;2.95;0.50;;;11.40;99.90;;;;;;2069926;28;20401;-75
2021/01/22 00:38:28;;;;;;;1.88;0.82;;;11.50;99.90;;;;;;2070271;28;20022;-74
2021/01/22 00:39:29;;;;;;;1.02;0.47;;;11.50;99.90;;;;;;2079526;28;20447;-75
2021/01/22 00:40:29;;;;;;;0.52;0.30;;;11.40;99.90;;;;;;2079006;28;20433;-73
2021/01/22 00:41:30;;;;;;;1.17;0.70;;;11.40;99.90;;;;;;2079450;28;20014;-77
2021/01/22 00:42:30;;;;;;;1.05;0.60;;;11.40;99.90;;;;;;2079535;28;20100;-75
2021/01/22 00:43:31;;;;;;;2.50;0.43;;;11.40;99.90;;;;;;2071437;28;20022;-75
2021/01/22 00:44:32;;;;;;;1.05;0.60;;;11.40;99.90;;;;;;2071587;28;20022;-76
2021/01/22 00:45:32;;;;;;;0.68;0.40;;;11.40;99.90;;;;;;2080545;28;20089;-76
2021/01/22 00:46:33;;;;;;;1.40;0.60;;;11.40;99.90;;;;;;2078642;28;20022;-74
2021/01/22 00:47:33;;;;;;;0.88;0.40;;;11.40;99.90;;;;;;2073592;28;20473;-76
2021/01/22 00:48:35;;;;;;;2.13;0.60;;;11.40;99.90;;;;;;2078028;28;20103;-74
2021/01/22 00:49:36;;;;;;;2.05;0.60;;;11.40;99.90;;;;;;2070474;28;20053;-75
2021/01/22 00:50:36;;;;;;;1.90;0.73;;;11.40;99.90;;;;;;2062068;28;20026;-77
2021/01/22 00:51:37;;;;;;;0.77;0.50;;;11.40;99.90;;;;;;2070841;28;20451;-75
2021/01/22 00:52:37;;;;;;;1.73;0.57;;;11.40;99.90;;;;;;2078732;28;20021;-76
2021/01/22 00:53:39;;;;;;;2.25;0.60;;;11.40;99.90;;;;;;2079070;28;20095;-76
2021/01/22 00:54:39;;;;;;;2.13;0.52;;;11.30;99.90;;;;;;2078484;28;20029;-75
2021/01/22 00:55:40;;;;;;;0.65;0.65;;;11.40;99.90;;;;;;2079303;28;20013;-75
2021/01/22 00:56:41;;;;;;;2.95;0.50;;;11.30;99.90;;;;;;2079049;28;20028;-76
2021/01/22 00:57:41;;;;;;;2.15;0.50;;;11.30;99.90;;;;;;2078042;28;20029;-76
2021/01/22 00:58:42;;;;;;;1.85;0.60;;;11.30;99.90;;;;;;2078610;28;20079;-76
2021/01/22 00:59:42;;;;;;;1.67;0.70;;;11.30;99.90;;;;;;2079154;28;20028;-76
2021/01/22 01:00:43;;;;;;;0.93;0.50;;;11.30;99.90;;;;;;2079050;28;20017;-75
2021/01/22 01:01:44;;;;;;;1.20;0.73;;;11.30;99.90;;;;;;2078989;28;20487;-76
2021/01/22 01:02:44;;;;;;;1.30;0.60;;;11.30;99.90;;;;;;2079402;28;20029;-77
2021/01/22 01:03:45;;;;;;;1.50;0.47;;;11.30;99.90;;;;;;2079117;28;20074;-76
2021/01/22 01:04:45;;;;;;;1.40;0.60;;;11.30;99.90;;;;;;2078836;28;20024;-76
2021/01/22 01:05:46;;;;;;;2.60;0.65;;;11.30;99.90;;;;;;2063413;28;20030;-76
2021/01/22 01:06:47;;;;;;;1.90;0.65;;;11.30;99.90;;;;;;2061784;28;20022;-78
2021/01/22 01:07:47;;;;;;;1.65;0.63;;;11.30;99.90;;;;;;2062110;28;20050;-76
2021/01/22 01:08:48;;;;;;;2.40;0.75;;;11.30;99.90;;;;;;2058492;28;20042;-76
2021/01/22 01:09:48;;;;;;;2.08;0.65;;;11.30;99.90;;;;;;2070463;28;20524;-76
2021/01/22 01:10:49;;;;;;;1.45;0.90;;;11.30;99.90;;;;;;2079091;28;20083;-77
2021/01/22 01:11:49;;;;;;;2.67;0.98;;;11.30;99.90;;;;;;2079027;28;20045;-76
2021/01/22 01:12:50;;;;;;;2.25;0.80;;;11.30;99.90;;;;;;2078850;28;20033;-75
2021/01/22 01:13:51;;;;;;;2.08;0.82;;;11.30;99.90;;;;;;2070412;28;20026;-76
2021/01/22 01:14:52;;;;;;;1.35;0.75;;;11.30;99.90;;;;;;2070322;28;20544;-76
2021/01/22 01:15:52;;;;;;;3.17;0.90;;;11.20;99.90;;;;;;2070389;28;20077;-75
2021/01/22 01:16:53;;;;;;;2.90;0.80;;;11.30;99.90;;;;;;2078459;28;20329;-75
2021/01/22 01:17:53;;;;;;;2.30;0.90;;;11.30;99.90;;;;;;2078630;28;20118;-77
2021/01/22 01:18:54;;;;;;;2.90;0.80;;;11.30;99.90;;;;;;2078935;28;20144;-76
2021/01/22 01:19:55;;;;;;;3.25;0.65;;;11.20;99.90;;;;;;2078932;28;20083;-76
2021/01/22 01:20:56;;;;;;;2.08;0.80;;;11.20;99.90;;;;;;2079351;28;20030;-77
2021/01/22 01:21:56;;;;;;;2.47;1.10;;;11.20;99.90;;;;;;2078945;28;20024;-75
2021/01/22 01:22:57;;;;;;;3.63;1.52;;;11.20;99.90;;;;;;2078588;28;20026;-77
2021/01/22 01:23:58;;;;;;;2.17;0.80;;;11.20;99.90;;;;;;2078706;28;20022;-77
2021/01/22 01:24:59;;;;;;;4.88;1.20;;;11.30;99.90;;;;;;2079160;28;20026;-76
2021/01/22 01:26:01;;;;;;;4.25;1.05;;;11.20;99.90;;;;;;2078664;28;20034;-77
2021/01/22 01:27:02;;;;;;;3.05;0.70;;;11.20;99.90;;;;;;2077738;28;20040;-75
2021/01/22 01:28:02;;;;;;;3.33;1.00;;;11.20;99.90;;;;;;2077965;28;20025;-76
2021/01/22 01:29:03;;;;;;;4.57;1.10;;;11.20;99.90;;;;;;2069520;28;20021;-78
2021/01/22 01:30:05;;;;;;;3.38;0.75;;;11.20;99.90;;;;;;2070402;28;20109;-75
2021/01/22 01:31:05;;;;;;;3.50;0.82;;;11.20;99.90;;;;;;2078570;28;20032;-77
2021/01/22 01:32:06;;;;;;;1.38;0.80;;;11.20;99.90;;;;;;2079181;28;20059;-76
2021/01/22 01:33:06;;;;;;;4.28;1.23;;;11.20;99.90;;;;;;2078485;28;20104;-76
2021/01/22 01:34:07;;;;;;;1.70;0.60;;;11.20;99.90;;;;;;2078818;28;20029;-77
2021/01/22 01:35:08;;;;;;;2.83;1.42;;;11.20;99.90;;;;;;2070332;28;20029;-77
2021/01/22 01:36:09;;;;;;;7.75;1.35;;;11.20;99.90;;;;;;2070517;28;20041;-78
2021/01/22 01:37:10;;;;;;;7.75;1.25;;;11.20;99.90;;;;;;2078337;28;20097;-75
2021/01/22 01:38:10;;;;;;;2.22;0.75;;;11.20;99.90;;;;;;2078549;28;20022;-77
2021/01/22 01:39:11;;;;;;;3.10;0.90;;;11.20;99.90;;;;;;2070206;28;20076;-76
2021/01/22 01:40:12;;;;;;;5.53;1.10;;;11.10;99.90;;;;;;2070285;28;20022;-76
2021/01/22 01:41:12;;;;;;;2.40;1.00;;;11.10;99.90;;;;;;2078386;28;20506;-75
2021/01/22 01:42:13;;;;;;;2.35;0.90;;;11.10;99.90;;;;;;2079014;28;20419;-77
2021/01/22 01:43:14;;;;;;;7.35;1.10;;;11.10;99.90;;;;;;2078674;28;20385;-76
2021/01/22 01:44:14;;;;;;;4.30;1.23;;;11.10;99.90;;;;;;2079100;28;20061;-78
2021/01/22 01:45:17;;;;;;;6.25;1.15;;;11.10;99.90;;;;;;2078894;28;20029;-75
2021/01/22 01:46:18;;;;;;;3.35;1.17;;;11.10;99.90;;;;;;2078688;28;20037;-76
2021/01/22 01:47:18;;;;;;;3.60;0.90;;;11.10;99.90;;;;;;2078264;28;20033;-75
2021/01/22 01:48:19;;;;;;;3.63;1.15;;;11.10;99.90;;;;;;2078217;28;20069;-77
2021/01/22 01:49:20;;;;;;;4.50;1.00;;;11.10;99.90;;;;;;2070036;28;20026;-77
2021/01/22 01:50:21;;;;;;;5.32;1.20;;;11.10;99.90;;;;;;2070520;28;20037;-76
2021/01/22 01:51:21;;;;;;;3.70;1.30;;;11.10;99.90;;;;;;2078438;28;20056;-76
2021/01/22 01:52:22;;;;;;;7.35;1.52;;;11.10;99.90;;;;;;2079095;28;20036;-77
2021/01/22 01:53:24;;;;;;;4.35;1.20;;;11.10;99.90;;;;;;2078746;28;20518;-76
2021/01/22 01:54:25;;;;;;;4.78;1.38;;;11.10;99.90;;;;;;2079006;28;20538;-75
2021/01/22 01:55:26;;;;;;;4.40;1.48;;;11.10;99.90;;;;;;2078736;28;20524;-77
2021/01/22 01:56:27;;;;;;;3.58;0.90;;;11.10;99.90;;;;;;2078836;28;20025;-76
2021/01/22 01:57:27;;;;;;;7.18;1.38;;;11.10;99.90;;;;;;2078183;28;20029;-78
2021/01/22 01:58:29;;;;;;;3.72;0.88;;;11.10;99.90;;;;;;2078633;28;20041;-76
2021/01/22 01:59:30;;;;;;;7.13;1.23;;;11.10;99.90;;;;;;2078936;28;20129;-77
2021/01/22 02:00:33;;;;;;;4.82;1.20;;;11.10;99.90;;;;;;2078660;28;20346;-75
2021/01/22 02:01:35;;;;;;;4.05;1.60;;;11.10;99.90;;;;;;2078960;28;20045;-75
2021/01/22 02:02:36;;;;;;;5.03;0.90;;;11.10;99.90;;;;;;2078863;28;20021;-75
2021/01/22 02:03:37;;;;;;;2.78;1.00;;;11.10;99.90;;;;;;2069549;28;20018;-75
2021/01/22 02:04:38;;;;;;;4.13;1.20;;;11.10;99.90;;;;;;2070295;28;20409;-76
2021/01/22 02:05:38;;;;;;;4.20;1.00;;;11.10;99.90;;;;;;2078853;28;20088;-76
2021/01/22 02:06:39;;;;;;;3.00;0.85;;;11.10;99.90;;;;;;2078775;28;20017;-76
2021/01/22 02:07:40;;;;;;;4.00;1.02;;;11.10;99.90;;;;;;2078166;28;20096;-75
2021/01/22 02:08:41;;;;;;;2.45;1.02;;;11.20;99.90;;;;;;2078771;28;20022;-76
2021/01/22 02:09:42;;;;;;;6.00;1.10;;;11.10;99.90;;;;;;2080645;28;20046;-76
2021/01/22 02:10:43;;;;;;;4.35;1.25;;;11.10;99.90;;;;;;2080262;28;20636;-76
2021/01/22 02:11:44;;;;;;;4.65;0.93;;;11.20;99.90;;;;;;2080175;28;20116;-76
2021/01/22 02:12:47;;;;;;;3.95;0.75;;;11.10;99.90;;;;;;2071124;28;20051;-76
2021/01/22 02:13:49;;;;;;;6.13;1.08;;;11.10;99.90;;;;;;2071595;28;20064;-79
2021/01/22 02:14:56;;;;;;;1.88;0.60;;;11.10;99.90;;;;;;2080107;28;20469;-85
2021/01/22 02:15:58;;;;;;;3.72;0.82;;;11.00;99.90;;;;;;2072479;28;20022;-84
2021/01/22 02:17:00;;;;;;;2.40;0.70;;;10.90;99.90;;;;;;2077685;28;20021;-83
2021/01/22 02:18:01;;;;;;;1.38;0.63;;;10.80;99.90;;;;;;2082902;28;20021;-86
2021/01/22 02:19:05;;;;;;;0.65;0.50;;;10.80;99.90;;;;;;2080490;28;20029;-85
2021/01/22 02:20:29;;;;;;;2.45;0.70;;;10.70;99.90;;;;;;2080633;28;20024;-83
2021/01/22 02:21:32;;;;;;;1.98;0.50;;;10.60;99.90;;;;;;2080626;28;20033;-84
2021/01/22 02:22:33;;;;;;;1.25;0.50;;;10.50;99.90;;;;;;2080557;28;20022;-84
2021/01/22 02:23:37;;;;;;;0.85;0.50;;;10.40;99.90;;;;;;2080337;28;20494;-83
2021/01/22 02:24:40;;;;;;;0.88;0.52;;;10.40;99.90;;;;;;2080698;28;20342;-82
2021/01/22 02:25:42;;;;;;;0.65;0.50;;;10.40;99.90;;;;;;2080540;28;20034;-83
2021/01/22 02:27:04;;;;;;;0.80;0.70;;;10.30;99.90;;;;;;2080108;28;20025;-85
2021/01/22 02:28:09;;;;;;;0.93;0.60;;;10.30;99.90;;;;;;2080295;28;20071;-84
2021/01/22 02:29:11;;;;;;;1.73;0.75;;;10.20;99.90;;;;;;2080544;28;20036;-83
2021/01/22 02:30:12;;;;;;;0.93;0.50;;;10.10;99.90;;;;;;2071675;28;20030;-85
2021/01/22 02:31:15;;;;;;;0.88;0.88;;;10.10;99.90;;;;;;2063510;28;20038;-82
2021/01/22 02:32:18;;;;;;;0.80;0.57;;;10.00;99.90;;;;;;2072311;28;20033;-85
2021/01/22 02:33:19;;;;;;;1.00;0.77;;;10.00;99.90;;;;;;2080434;28;20140;-82
2021/01/22 02:34:34;;;;;;;1.48;1.38;;;10.00;99.90;;;;;;2080265;28;20507;-82
2021/01/22 02:35:36;;;;;;;0.82;0.63;;;9.90;99.90;;;;;;2080603;28;20046;-84
2021/01/22 02:36:39;;;;;;;0.68;0.68;;;9.80;99.90;;;;;;2080182;28;20384;-84
2021/01/22 02:37:43;;;;;;;0.68;0.68;;;9.80;99.90;;;;;;2080051;28;20049;-83
2021/01/22 02:38:46;;;;;;;0.82;0.68;;;9.70;99.90;;;;;;2079646;28;20021;-82
2021/01/22 02:39:53;;;;;;;0.45;0.40;;;9.70;99.90;;;;;;2080383;28;20074;-82
2021/01/22 02:40:57;;;;;;;0.63;0.63;;;9.60;99.90;;;;;;2080753;28;20028;-82
2021/01/22 02:42:00;;;;;;;0.65;0.65;;;9.50;99.90;;;;;;2072139;28;20424;-83
2021/01/22 02:43:03;;;;;;;0.60;0.60;;;9.50;99.90;;;;;;2071585;28;20034;-82
2021/01/22 02:44:04;;;;;;;1.73;0.80;;;9.40;99.90;;;;;;2071782;28;20059;-83
2021/01/22 02:45:11;;;;;;;0.65;0.65;;;9.40;99.90;;;;;;2080316;28;20028;-81
2021/01/22 02:46:12;;;;;;;0.88;0.70;;;9.40;99.90;;;;;;2080344;28;20032;-83
2021/01/22 02:47:15;;;;;;;0.57;0.57;;;9.30;99.90;;;;;;2070659;28;20022;-83
2021/01/22 02:48:15;;;;;;;0.60;0.60;;;9.30;99.90;;;;;;2071651;28;20037;-82
2021/01/22 02:49:16;;;;;;;0.73;0.60;;;9.20;99.90;;;;;;2071550;28;20030;-83
2021/01/22 02:50:28;;;;;;;0.93;0.50;;;9.20;99.90;;;;;;2072070;28;20084;-82
2021/01/22 02:51:29;;;;;;;0.50;0.25;;;9.10;99.90;;;;;;2080548;28;20055;-82
2021/01/22 02:52:30;;;;;;;0.30;0.30;;;9.00;99.90;;;;;;2080731;28;20037;-81
2021/01/22 02:53:30;;;;;;;0.30;0.30;;;9.00;99.90;;;;;;2080123;28;20488;-82
2021/01/22 02:54:31;;;;;;;0.70;0.47;;;8.90;99.90;;;;;;2080605;28;20025;-81
2021/01/22 02:55:34;;;;;;;0.80;0.80;;;8.80;99.90;;;;;;2080475;28;20017;-82
2021/01/22 02:56:51;;;;;;;0.80;0.80;;;8.70;99.90;;;;;;2080721;28;20014;-82
2021/01/22 02:58:03;;;;;;;0.80;0.80;;;8.70;99.90;;;;;;2080724;28;20021;-81
2021/01/22 02:59:15;;;;;;;0.70;0.70;;;8.60;99.90;;;;;;2080300;28;20033;-82
2021/01/22 03:00:27;;;;;;;0.40;0.40;;;8.50;99.90;;;;;;2080834;28;20026;-82
2021/01/22 03:01:30;;;;;;;0.20;0.20;;;8.40;99.90;;;;;;2081884;28;20026;-83
2021/01/22 03:03:09;;;;;;;0.30;0.30;;;8.40;99.90;;;;;;2081516;28;20028;-83
2021/01/22 03:04:12;;;;;;;0.40;0.40;;;8.30;99.90;;;;;;2055603;28;20140;-81
2021/01/22 03:05:15;;;;;;;0.40;0.30;;;8.20;99.90;;;;;;2053486;28;20480;-83
2021/01/22 03:06:23;;;;;;;0.40;0.40;;;8.20;99.90;;;;;;2051979;28;20039;-81
2021/01/22 03:07:29;;;;;;;0.38;0.38;;;8.20;99.90;;;;;;2078708;28;20116;-80
2021/01/22 03:08:34;;;;;;;0.50;0.45;;;8.20;99.90;;;;;;2080956;28;20511;-81
2021/01/22 03:09:40;;;;;;;0.40;0.40;;;8.10;99.90;;;;;;2072498;28;20021;-82
2021/01/22 03:10:41;;;;;;;0.98;0.40;;;8.10;99.90;;;;;;2073194;28;20045;-81
2021/01/22 03:11:44;;;;;;;0.40;0.40;;;8.00;99.90;;;;;;2081251;28;20030;-83
2021/01/22 03:12:48;;;;;;;0.50;0.50;;;8.00;99.90;;;;;;2081392;28;20025;-81
2021/01/22 03:13:50;;;;;;;0.30;0.30;;;8.00;99.90;;;;;;2080928;28;20160;-81
2021/01/22 03:14:52;;;;;;;0.40;0.40;;;7.90;99.90;;;;;;2081031;28;20109;-81
2021/01/22 03:15:53;;;;;;;0.40;0.25;;;7.90;99.90;;;;;;2072406;28;20461;-81
2021/01/22 03:16:53;;;;;;;0.85;0.43;;;7.90;99.90;;;;;;2071840;28;20029;-81
2021/01/22 03:18:17;;;;;;;0.52;0.32;;;7.90;99.90;;;;;;2072325;28;20105;-82
2021/01/22 03:19:18;;;;;;;0.43;0.43;;;7.80;99.90;;;;;;2067338;28;20018;-80
2021/01/22 03:20:20;;;;;;;1.27;0.30;;;7.80;99.90;;;;;;2071864;28;20029;-81
2021/01/22 03:21:21;;;;;;;0.30;0.30;;;7.80;99.90;;;;;;2080853;28;20108;-81
2021/01/22 03:22:21;;;;;;;0.40;0.40;;;7.80;99.90;;;;;;2081172;28;20036;-81
2021/01/22 03:23:22;;;;;;;0.40;0.40;;;7.70;99.90;;;;;;2081018;28;20029;-81
2021/01/22 03:24:23;;;;;;;0.57;0.57;;;7.70;99.90;;;;;;2080984;28;20021;-80
2021/01/22 03:25:23;;;;;;;1.42;0.40;;;7.70;99.90;;;;;;2080931;28;20083;-81
2021/01/22 03:26:24;;;;;;;0.60;0.32;;;7.80;99.90;;;;;;2081040;28;20056;-81
2021/01/22 03:27:24;;;;;;;1.33;0.57;;;7.80;99.90;;;;;;2080658;28;20477;-81
2021/01/22 03:28:25;;;;;;;0.63;0.50;;;7.80;99.90;;;;;;2071803;28;20137;-80
2021/01/22 03:29:26;;;;;;;1.13;0.60;;;7.90;99.90;;;;;;2072430;28;20521;-81
2021/01/22 03:30:28;;;;;;;1.45;0.60;;;7.90;99.90;;;;;;2071837;28;20072;-81
2021/01/22 03:31:28;;;;;;;1.15;0.70;;;7.90;99.90;;;;;;2072504;28;20021;-80
2021/01/22 03:32:29;;;;;;;1.98;1.10;;;7.90;99.90;;;;;;2081289;28;20068;-81
2021/01/22 03:33:30;;;;;;;1.95;1.17;;;7.90;99.90;;;;;;2080959;28;20033;-80
2021/01/22 03:34:31;;;;;;;1.73;1.27;;;7.90;99.90;;;;;;2080976;28;20029;-81
2021/01/22 03:35:31;;;;;;;1.60;1.50;;;7.90;99.90;;;;;;2080843;28;20025;-80
2021/01/22 03:36:32;;;;;;;1.95;1.73;;;7.90;99.90;;;;;;2080800;28;20028;-81
2021/01/22 03:37:33;;;;;;;1.58;1.48;;;7.90;99.90;;;;;;2071466;28;20029;-81
2021/01/22 03:38:34;;;;;;;1.70;1.60;;;7.90;99.90;;;;;;2071326;28;20030;-81
2021/01/22 03:39:35;;;;;;;2.17;1.60;;;7.90;99.90;;;;;;2080748;28;20055;-80
2021/01/22 03:40:36;;;;;;;2.85;1.80;;;7.90;99.90;;;;;;2080347;28;20052;-81
2021/01/22 03:41:36;;;;;;;1.63;1.52;;;7.90;99.90;;;;;;2080999;28;20040;-80
2021/01/22 03:42:37;;;;;;;1.90;1.80;;;7.90;99.90;;;;;;2080925;28;20018;-80
2021/01/22 03:43:38;;;;;;;1.80;1.70;;;7.80;99.90;;;;;;2072119;28;20026;-80
2021/01/22 03:44:38;;;;;;;2.13;1.70;;;7.90;99.90;;;;;;2072083;28;20053;-80
2021/01/22 03:45:40;;;;;;;2.13;1.42;;;7.80;99.90;;;;;;2072066;28;20413;-80
2021/01/22 03:46:41;;;;;;;1.50;1.40;;;7.80;99.90;;;;;;2080672;28;20022;-80
2021/01/22 03:47:42;;;;;;;1.88;1.60;;;7.80;99.90;;;;;;2080539;28;20566;-80
2021/01/22 03:48:43;;;;;;;1.60;1.50;;;7.80;99.90;;;;;;2080425;28;20025;-80
2021/01/22 03:49:43;;;;;;;1.75;1.40;;;7.80;99.90;;;;;;2080949;28;20385;-80
2021/01/22 03:50:44;;;;;;;3.17;2.20;;;7.80;99.90;;;;;;2080755;28;20033;-79
2021/01/22 03:51:45;;;;;;;2.85;2.65;;;7.70;99.90;;;;;;2080846;28;20021;-80
2021/01/22 03:52:45;;;;;;;3.20;2.97;;;7.80;99.90;;;;;;2080830;28;20025;-80
2021/01/22 03:53:46;;;;;;;3.17;2.78;;;7.80;99.90;;;;;;2080542;28;20025;-80
2021/01/22 03:54:46;;;;;;;5.60;3.38;;;7.80;99.90;;;;;;2080863;28;20022;-81
2021/01/22 03:55:47;;;;;;;3.15;2.95;;;7.70;99.90;;;;;;2080606;28;20036;-81
2021/01/22 03:56:47;;;;;;;3.00;2.70;;;7.70;99.90;;;;;;2080065;28;20490;-80
2021/01/22 03:57:48;;;;;;;2.95;2.70;;;7.70;99.90;;;;;;2080912;28;20032;-80
2021/01/22 03:58:48;;;;;;;3.38;3.08;;;7.70;99.90;;;;;;2080290;28;20148;-80
2021/01/22 03:59:49;;;;;;;4.18;3.55;;;7.70;99.90;;;;;;2080763;28;20021;-80
2021/01/22 04:00:50;;;;;;;5.65;3.90;;;7.70;99.90;;;;;;2071811;28;20028;-80
2021/01/22 04:01:50;;;;;;;3.60;3.30;;;7.70;99.90;;;;;;2071080;28;20125;-80
2021/01/22 04:02:51;;;;;;;4.85;3.92;;;7.70;99.90;;;;;;2079989;28;20648;-80
2021/01/22 04:03:51;;;;;;;4.82;4.43;;;7.80;99.90;;;;;;2079404;28;20457;-80
2021/01/22 04:04:52;;;;;;;8.05;4.97;;;7.80;99.90;;;;;;2079621;28;20021;-80
2021/01/22 04:05:52;;;;;;;8.30;5.90;;;7.80;99.90;;;;;;2079873;28;20025;-80
2021/01/22 04:06:53;;;;;;;5.13;4.63;;;7.80;99.90;;;;;;2079250;28;20472;-80
2021/01/22 04:07:54;;;;;;;5.93;5.25;;;7.80;99.90;;;;;;2070781;28;20044;-80
2021/01/22 04:08:54;;;;;;;7.93;5.70;;;7.80;99.90;;;;;;2070691;28;20037;-80
2021/01/22 04:09:55;;;;;;;7.40;5.60;;;7.80;99.90;;;;;;2079470;28;20026;-81
2021/01/22 04:10:55;;;;;;;7.70;6.15;;;7.80;99.90;;;;;;2079734;28;20118;-80
2021/01/22 04:11:57;;;;;;;7.95;5.90;;;7.80;99.90;;;;;;2079468;28;20045;-80
2021/01/22 04:12:57;;;;;;;5.80;5.20;;;7.80;99.90;;;;;;2079574;28;20112;-80
2021/01/22 04:13:58;;;;;;;5.70;5.20;;;7.80;99.90;;;;;;2070611;28;20533;-81
2021/01/22 04:14:59;;;;;;;9.25;6.13;;;7.80;99.90;;;;;;2070630;28;20036;-80
2021/01/22 04:16:01;;;;;;;6.68;6.07;;;7.80;99.90;;;;;;2069982;28;20979;-79
2021/01/22 04:17:02;;;;;;;6.65;6.03;;;7.80;99.90;;;;;;2062501;28;20034;-80
2021/01/22 04:18:02;;;;;;;6.18;5.57;;;7.80;99.90;;;;;;2061124;28;20018;-80
2021/01/22 04:19:03;;;;;;;6.15;5.30;;;7.80;99.90;;;;;;2070534;28;20028;-80
2021/01/22 04:20:04;;;;;;;7.38;5.38;;;7.80;99.90;;;;;;2078990;28;20457;-80
2021/01/22 04:21:05;;;;;;;7.13;6.07;;;7.80;99.90;;;;;;2079496;28;20017;-80
2021/01/22 04:22:06;;;;;;;7.70;5.22;;;7.80;99.90;;;;;;2079099;28;20048;-80
2021/01/22 04:23:07;;;;;;;7.20;5.78;;;7.80;99.90;;;;;;2078947;28;20017;-80
2021/01/22 04:24:07;;;;;;;4.95;4.53;;;7.80;99.90;;;;;;2079108;28;20033;-80
2021/01/22 04:25:09;;;;;;;7.18;5.28;;;7.80;99.90;;;;;;2066999;28;20033;-80
2021/01/22 04:26:09;;;;;;;6.10;5.60;;;7.80;99.90;;;;;;2069054;28;20117;-80
2021/01/22 04:27:10;;;;;;;6.00;5.40;;;7.70;99.90;;;;;;2078857;28;20370;-78
2021/01/22 04:28:10;;;;;;;5.38;4.80;;;7.70;99.90;;;;;;2078985;28;20068;-80
2021/01/22 04:29:12;;;;;;;5.18;4.78;;;7.70;99.90;;;;;;2079029;28;20056;-80
2021/01/22 04:30:13;;;;;;;5.53;5.03;;;7.70;99.90;;;;;;2078999;28;20025;-79
2021/01/22 04:31:14;;;;;;;5.50;4.90;;;7.70;99.90;;;;;;2070247;28;20034;-81
2021/01/22 04:32:14;;;;;;;5.10;4.72;;;7.60;99.90;;;;;;2070322;28;20066;-80
2021/01/22 04:33:15;;;;;;;5.88;5.38;;;7.60;99.90;;;;;;2069805;28;20122;-80
2021/01/22 04:34:16;;;;;;;5.97;5.22;;;7.60;99.90;;;;;;2070339;28;20025;-79
2021/01/22 04:35:17;;;;;;;4.95;4.55;;;7.60;99.90;;;;;;2069882;28;20024;-80
2021/01/22 04:36:18;;;;;;;5.03;4.45;;;7.50;99.90;;;;;;2070129;28;20022;-80
2021/01/22 04:37:18;;;;;;;5.15;4.65;;;7.60;99.90;;;;;;2078320;28;20029;-81
2021/01/22 04:38:19;;;;;;;6.13;4.97;;;7.60;99.90;;;;;;2079099;28;20083;-79
2021/01/22 04:39:20;;;;;;;5.93;4.90;;;7.60;99.90;;;;;;2079122;28;20398;-80
2021/01/22 04:40:23;;;;;;;7.28;4.50;;;7.50;99.90;;;;;;2070890;28;20026;-80
2021/01/22 04:41:24;;;;;;;6.85;5.57;;;7.50;99.90;;;;;;2070269;28;20112;-80
2021/01/22 04:42:24;;;;;;;6.20;4.93;;;7.50;99.90;;;;;;2070681;28;20025;-79
2021/01/22 04:43:25;;;;;;;5.88;5.22;;;7.50;99.90;;;;;;2078823;28;20040;-79
2021/01/22 04:44:26;;;;;;;5.85;5.05;;;7.50;99.90;;;;;;2078885;28;20022;-80
2021/01/22 04:45:26;;;;;;;5.38;4.85;;;7.50;99.90;;;;;;2078701;28;20048;-79
2021/01/22 04:46:34;;;;;;;5.80;5.30;;;7.40;99.90;;;;;;2062333;28;20040;-80
2021/01/22 04:47:36;;;;;;;5.60;5.10;;;7.40;99.90;;;;;;2066861;28;20053;-80
2021/01/22 04:48:41;;;;;;;5.45;4.97;;;7.40;99.90;;;;;;2070328;28;20557;-80
2021/01/22 04:49:44;;;;;;;5.72;4.90;;;7.40;99.90;;;;;;2070798;28;20038;-79
2021/01/22 04:50:45;;;;;;;5.43;4.85;;;7.40;99.90;;;;;;2079407;28;20040;-80
2021/01/22 04:51:47;;;;;;;5.20;4.70;;;7.40;99.90;;;;;;2079087;28;20125;-79
2021/01/22 04:52:50;;;;;;;5.63;4.80;;;7.40;99.90;;;;;;2078745;28;20036;-80
2021/01/22 04:53:55;;;;;;;6.15;4.75;;;7.50;99.90;;;;;;2078448;28;20501;-79
2021/01/22 04:54:57;;;;;;;6.00;5.40;;;7.40;99.90;;;;;;2079015;28;20489;-78
2021/01/22 04:56:00;;;;;;;4.80;4.40;;;7.40;99.90;;;;;;2070039;28;20181;-79
2021/01/22 04:57:01;;;;;;;4.47;4.07;;;7.40;99.90;;;;;;2070139;28;20045;-79
2021/01/22 04:58:03;;;;;;;7.07;4.72;;;7.40;99.90;;;;;;2078603;28;20390;-78
2021/01/22 04:59:09;;;;;;;4.72;4.28;;;7.40;99.90;;;;;;2079222;28;20036;-79
2021/01/22 05:00:11;;;;;;;4.88;4.40;;;7.40;99.90;;;;;;2079045;28;20025;-80
2021/01/22 05:01:12;;;;;;;5.30;4.80;;;7.40;99.90;;;;;;2078827;28;20031;-79
2021/01/22 05:02:13;;;;;;;4.60;4.10;;;7.30;99.90;;;;;;2079132;28;20627;-79
2021/01/22 05:03:14;;;;;;;5.65;5.10;;;7.40;99.90;;;;;;2079012;28;20033;-79
2021/01/22 05:04:17;;;;;;;5.10;4.70;;;7.40;99.90;;;;;;2078994;28;20025;-79
2021/01/22 05:05:18;;;;;;;6.72;5.35;;;7.40;99.90;;;;;;2079083;28;20067;-80
2021/01/22 05:06:19;;;;;;;5.72;5.22;;;7.40;99.90;;;;;;2070242;28;20495;-79
2021/01/22 05:07:21;;;;;;;8.60;6.05;;;7.40;99.90;;;;;;2069758;28;20053;-79
2021/01/22 05:08:22;;;;;;;7.15;6.45;;;7.40;99.90;;;;;;2078501;28;20109;-80
2021/01/22 05:09:24;;;;;;;6.97;6.38;;;7.40;99.90;;;;;;2070420;28;20034;-79
2021/01/22 05:10:24;;;;;;;7.35;6.65;;;7.30;99.90;;;;;;2070523;28;20029;-79
2021/01/22 05:11:25;;;;;;;7.18;6.47;;;7.30;99.90;;;;;;2078977;28;20022;-79
2021/01/22 05:12:33;;;;;;;7.82;7.03;;;7.30;99.90;;;;;;2079103;28;20091;-79
2021/01/22 05:13:36;;;;;;;7.97;7.18;;;7.30;99.90;;;;;;2069930;28;20092;-79
2021/01/22 05:14:37;;;;;;;7.47;6.88;;;7.30;99.90;;;;;;2062343;28;20023;-78
2021/01/22 05:15:38;;;;;;;7.88;7.18;;;7.30;99.90;;;;;;2061910;28;20414;-79
2021/01/22 05:16:38;;;;;;;8.15;7.45;;;7.30;99.90;;;;;;2070029;28;20201;-79
2021/01/22 05:17:55;;;;;;;8.73;7.43;;;7.30;99.90;;;;;;2078792;28;20068;-80
2021/01/22 05:18:56;;;;;;;8.95;7.68;;;7.30;99.90;;;;;;2069805;28;20026;-80
2021/01/22 05:20:05;;;;;;;8.32;7.60;;;7.20;99.90;;;;;;2070315;28;20028;-80
2021/01/22 05:21:07;;;;;;;7.90;7.20;;;7.20;99.90;;;;;;2078855;28;20014;-79
2021/01/22 05:22:15;;;;;;;8.23;7.53;;;7.20;99.90;;;;;;2079109;28;20468;-80
2021/01/22 05:23:16;;;;;;;7.65;6.85;;;7.20;99.90;;;;;;2078541;28;20021;-79
2021/01/22 05:24:21;;;;;;;7.75;7.05;;;7.20;99.90;;;;;;2069961;28;20026;-79
2021/01/22 05:25:23;;;;;;;7.00;6.40;;;7.20;99.90;;;;;;2062595;28;20381;-79